sensor_id;sensor_type;location;lat;lon;timestamp;P1;durP1;ratioP1;P2;durP2;ratioP2
25359;SDS011;13311;51.386;0.016;2023-05-20T00:00:19;12.43;;;5.85;;
25359;SDS011;13311;51.386;0.016;2023-05-20T00:05:19;14.80;;;5.68;;
25359;SDS011;13311;51.386;0.016;2023-05-20T00:10:20;13.35;;;6.22;;
25359;SDS011;13311;51.386;0.016;2023-05-20T00:15:21;11.23;;;6.47;;
25359;SDS011;13311;51.386;0.016;2023-05-20T00:20:21;15.30;;;6.47;;
25359;SDS011;13311;51.386;0.016;2023-05-20T00:25:22;12.23;;;6.63;;
25359;SDS011;13311;51.386;0.016;2023-05-20T00:30:23;14.35;;;6.65;;
25359;SDS011;13311;51.386;0.016;2023-05-20T00:35:24;13.90;;;6.68;;
25359;SDS011;13311;51.386;0.016;2023-05-20T00:40:24;13.35;;;6.32;;
25359;SDS011;13311;51.386;0.016;2023-05-20T00:45:25;13.82;;;7.25;;
25359;SDS011;13311;51.386;0.016;2023-05-20T00:50:26;18.27;;;7.05;;
25359;SDS011;13311;51.386;0.016;2023-05-20T00:55:27;14.70;;;5.88;;
25359;SDS011;13311;51.386;0.016;2023-05-20T01:00:28;15.50;;;6.50;;
25359;SDS011;13311;51.386;0.016;2023-05-20T01:05:29;13.18;;;6.53;;
25359;SDS011;13311;51.386;0.016;2023-05-20T01:10:30;12.70;;;6.57;;
25359;SDS011;13311;51.386;0.016;2023-05-20T01:15:33;11.60;;;6.35;;
25359;SDS011;13311;51.386;0.016;2023-05-20T01:20:35;21.08;;;6.47;;
25359;SDS011;13311;51.386;0.016;2023-05-20T01:25:36;14.98;;;6.78;;
25359;SDS011;13311;51.386;0.016;2023-05-20T01:30:37;13.00;;;6.80;;
25359;SDS011;13311;51.386;0.016;2023-05-20T01:35:45;17.98;;;6.35;;
25359;SDS011;13311;51.386;0.016;2023-05-20T01:40:46;15.48;;;6.70;;
25359;SDS011;13311;51.386;0.016;2023-05-20T01:45:48;14.20;;;7.13;;
25359;SDS011;13311;51.386;0.016;2023-05-20T01:50:49;12.18;;;6.20;;
25359;SDS011;13311;51.386;0.016;2023-05-20T01:55:50;14.20;;;6.93;;
25359;SDS011;13311;51.386;0.016;2023-05-20T02:00:51;14.68;;;6.50;;
25359;SDS011;13311;51.386;0.016;2023-05-20T02:05:51;11.57;;;6.50;;
25359;SDS011;13311;51.386;0.016;2023-05-20T02:10:52;12.98;;;7.65;;
25359;SDS011;13311;51.386;0.016;2023-05-20T02:15:53;15.55;;;6.57;;
25359;SDS011;13311;51.386;0.016;2023-05-20T02:20:53;19.05;;;6.97;;
25359;SDS011;13311;51.386;0.016;2023-05-20T02:25:54;14.45;;;7.30;;
25359;SDS011;13311;51.386;0.016;2023-05-20T02:30:55;12.70;;;7.25;;
25359;SDS011;13311;51.386;0.016;2023-05-20T02:35:56;12.85;;;7.00;;
25359;SDS011;13311;51.386;0.016;2023-05-20T02:40:56;11.82;;;6.68;;
25359;SDS011;13311;51.386;0.016;2023-05-20T02:45:58;13.55;;;7.03;;
25359;SDS011;13311;51.386;0.016;2023-05-20T02:50:59;16.08;;;7.75;;
25359;SDS011;13311;51.386;0.016;2023-05-20T02:56:00;22.45;;;8.13;;
25359;SDS011;13311;51.386;0.016;2023-05-20T03:01:03;16.88;;;6.72;;
25359;SDS011;13311;51.386;0.016;2023-05-20T03:06:04;17.42;;;6.93;;
25359;SDS011;13311;51.386;0.016;2023-05-20T03:11:05;14.70;;;6.75;;
25359;SDS011;13311;51.386;0.016;2023-05-20T03:16:06;16.42;;;8.43;;
25359;SDS011;13311;51.386;0.016;2023-05-20T03:21:07;16.90;;;7.38;;
25359;SDS011;13311;51.386;0.016;2023-05-20T03:26:08;15.18;;;7.20;;
25359;SDS011;13311;51.386;0.016;2023-05-20T03:31:08;15.68;;;7.43;;
25359;SDS011;13311;51.386;0.016;2023-05-20T03:36:09;17.52;;;7.75;;
25359;SDS011;13311;51.386;0.016;2023-05-20T03:41:10;18.27;;;7.13;;
25359;SDS011;13311;51.386;0.016;2023-05-20T03:46:11;15.88;;;7.13;;
25359;SDS011;13311;51.386;0.016;2023-05-20T03:51:11;15.13;;;6.75;;
25359;SDS011;13311;51.386;0.016;2023-05-20T03:56:12;15.77;;;7.72;;
25359;SDS011;13311;51.386;0.016;2023-05-20T04:01:13;15.30;;;6.93;;
25359;SDS011;13311;51.386;0.016;2023-05-20T04:06:14;23.45;;;9.98;;
25359;SDS011;13311;51.386;0.016;2023-05-20T04:11:14;21.88;;;9.55;;
25359;SDS011;13311;51.386;0.016;2023-05-20T04:16:16;15.10;;;8.25;;
25359;SDS011;13311;51.386;0.016;2023-05-20T04:21:17;24.23;;;10.02;;
25359;SDS011;13311;51.386;0.016;2023-05-20T04:26:20;16.58;;;8.95;;
25359;SDS011;13311;51.386;0.016;2023-05-20T04:31:21;16.85;;;8.82;;
25359;SDS011;13311;51.386;0.016;2023-05-20T04:36:25;20.80;;;9.30;;
25359;SDS011;13311;51.386;0.016;2023-05-20T04:41:29;18.35;;;9.90;;
25359;SDS011;13311;51.386;0.016;2023-05-20T04:46:30;19.60;;;9.68;;
25359;SDS011;13311;51.386;0.016;2023-05-20T04:51:32;19.58;;;9.63;;
25359;SDS011;13311;51.386;0.016;2023-05-20T04:56:34;15.43;;;9.82;;
25359;SDS011;13311;51.386;0.016;2023-05-20T05:01:35;20.65;;;10.48;;
25359;SDS011;13311;51.386;0.016;2023-05-20T05:06:36;22.52;;;10.20;;
25359;SDS011;13311;51.386;0.016;2023-05-20T05:11:37;16.13;;;9.40;;
25359;SDS011;13311;51.386;0.016;2023-05-20T05:16:38;21.70;;;11.05;;
25359;SDS011;13311;51.386;0.016;2023-05-20T05:21:38;21.60;;;10.70;;
25359;SDS011;13311;51.386;0.016;2023-05-20T05:26:39;20.70;;;10.43;;
25359;SDS011;13311;51.386;0.016;2023-05-20T05:31:40;24.98;;;10.50;;
25359;SDS011;13311;51.386;0.016;2023-05-20T05:36:40;18.17;;;8.98;;
25359;SDS011;13311;51.386;0.016;2023-05-20T05:41:41;21.08;;;9.98;;
25359;SDS011;13311;51.386;0.016;2023-05-20T05:46:42;20.75;;;10.63;;
25359;SDS011;13311;51.386;0.016;2023-05-20T05:51:42;23.33;;;10.90;;
25359;SDS011;13311;51.386;0.016;2023-05-20T05:56:43;28.75;;;11.02;;
25359;SDS011;13311;51.386;0.016;2023-05-20T06:01:44;24.15;;;11.05;;
25359;SDS011;13311;51.386;0.016;2023-05-20T06:06:45;17.77;;;10.05;;
25359;SDS011;13311;51.386;0.016;2023-05-20T06:11:47;23.65;;;9.77;;
25359;SDS011;13311;51.386;0.016;2023-05-20T06:16:48;16.45;;;8.60;;
25359;SDS011;13311;51.386;0.016;2023-05-20T06:21:48;19.88;;;9.70;;
25359;SDS011;13311;51.386;0.016;2023-05-20T06:26:49;27.23;;;11.32;;
25359;SDS011;13311;51.386;0.016;2023-05-20T06:31:51;17.73;;;10.27;;
25359;SDS011;13311;51.386;0.016;2023-05-20T06:36:52;22.88;;;10.60;;
25359;SDS011;13311;51.386;0.016;2023-05-20T06:41:52;21.17;;;11.38;;
25359;SDS011;13311;51.386;0.016;2023-05-20T06:46:53;24.38;;;11.05;;
25359;SDS011;13311;51.386;0.016;2023-05-20T06:51:54;18.73;;;9.95;;
25359;SDS011;13311;51.386;0.016;2023-05-20T06:56:54;17.10;;;7.53;;
25359;SDS011;13311;51.386;0.016;2023-05-20T07:01:55;20.08;;;10.60;;
25359;SDS011;13311;51.386;0.016;2023-05-20T07:06:56;23.10;;;11.75;;
25359;SDS011;13311;51.386;0.016;2023-05-20T07:11:57;18.15;;;10.00;;
25359;SDS011;13311;51.386;0.016;2023-05-20T07:16:57;19.65;;;8.93;;
25359;SDS011;13311;51.386;0.016;2023-05-20T07:21:58;21.92;;;9.48;;
25359;SDS011;13311;51.386;0.016;2023-05-20T07:26:59;21.23;;;8.57;;
25359;SDS011;13311;51.386;0.016;2023-05-20T07:32:00;18.20;;;7.60;;
25359;SDS011;13311;51.386;0.016;2023-05-20T07:37:02;19.08;;;7.43;;
25359;SDS011;13311;51.386;0.016;2023-05-20T07:42:03;20.67;;;8.95;;
25359;SDS011;13311;51.386;0.016;2023-05-20T07:47:04;11.27;;;6.78;;
25359;SDS011;13311;51.386;0.016;2023-05-20T07:52:05;21.23;;;9.70;;
25359;SDS011;13311;51.386;0.016;2023-05-20T07:57:06;14.65;;;8.55;;
25359;SDS011;13311;51.386;0.016;2023-05-20T08:02:07;19.73;;;9.05;;
25359;SDS011;13311;51.386;0.016;2023-05-20T08:07:08;13.63;;;7.20;;
25359;SDS011;13311;51.386;0.016;2023-05-20T08:12:09;11.57;;;5.47;;
25359;SDS011;13311;51.386;0.016;2023-05-20T08:17:10;12.70;;;6.78;;
25359;SDS011;13311;51.386;0.016;2023-05-20T08:22:11;15.18;;;6.72;;
25359;SDS011;13311;51.386;0.016;2023-05-20T08:27:11;11.68;;;5.40;;
25359;SDS011;13311;51.386;0.016;2023-05-20T08:32:12;14.45;;;7.15;;
25359;SDS011;13311;51.386;0.016;2023-05-20T08:37:13;11.30;;;6.50;;
25359;SDS011;13311;51.386;0.016;2023-05-20T08:42:14;14.10;;;7.15;;
25359;SDS011;13311;51.386;0.016;2023-05-20T08:47:15;16.65;;;8.13;;
25359;SDS011;13311;51.386;0.016;2023-05-20T08:52:20;16.83;;;6.85;;
25359;SDS011;13311;51.386;0.016;2023-05-20T08:57:21;20.30;;;6.03;;
25359;SDS011;13311;51.386;0.016;2023-05-20T09:02:22;12.15;;;5.13;;
25359;SDS011;13311;51.386;0.016;2023-05-20T09:07:29;16.55;;;5.57;;
25359;SDS011;13311;51.386;0.016;2023-05-20T09:12:30;8.97;;;3.33;;
25359;SDS011;13311;51.386;0.016;2023-05-20T09:17:31;15.45;;;5.15;;
25359;SDS011;13311;51.386;0.016;2023-05-20T09:22:37;10.88;;;5.43;;
25359;SDS011;13311;51.386;0.016;2023-05-20T09:27:38;10.65;;;5.53;;
25359;SDS011;13311;51.386;0.016;2023-05-20T09:32:39;6.88;;;4.07;;
25359;SDS011;13311;51.386;0.016;2023-05-20T09:37:41;11.85;;;5.63;;
25359;SDS011;13311;51.386;0.016;2023-05-20T09:42:46;4.22;;;2.90;;
25359;SDS011;13311;51.386;0.016;2023-05-20T09:47:53;10.48;;;4.80;;
25359;SDS011;13311;51.386;0.016;2023-05-20T09:52:55;8.38;;;5.07;;
25359;SDS011;13311;51.386;0.016;2023-05-20T09:57:57;9.85;;;4.28;;
25359;SDS011;13311;51.386;0.016;2023-05-20T10:03:02;15.23;;;4.72;;
25359;SDS011;13311;51.386;0.016;2023-05-20T10:13:47;13.43;;;4.45;;
25359;SDS011;13311;51.386;0.016;2023-05-20T10:24:36;5.43;;;2.58;;
25359;SDS011;13311;51.386;0.016;2023-05-20T10:29:49;8.70;;;4.15;;
25359;SDS011;13311;51.386;0.016;2023-05-20T10:34:59;14.02;;;4.35;;
25359;SDS011;13311;51.386;0.016;2023-05-20T10:40:10;7.75;;;3.78;;
25359;SDS011;13311;51.386;0.016;2023-05-20T10:45:24;10.52;;;3.50;;
25359;SDS011;13311;51.386;0.016;2023-05-20T10:55:37;10.95;;;3.97;;
25359;SDS011;13311;51.386;0.016;2023-05-20T11:00:39;10.43;;;4.57;;
25359;SDS011;13311;51.386;0.016;2023-05-20T11:05:41;7.32;;;3.45;;
25359;SDS011;13311;51.386;0.016;2023-05-20T11:10:46;8.50;;;3.30;;
25359;SDS011;13311;51.386;0.016;2023-05-20T11:15:47;8.45;;;3.00;;
25359;SDS011;13311;51.386;0.016;2023-05-20T11:20:49;10.48;;;4.03;;
25359;SDS011;13311;51.386;0.016;2023-05-20T11:25:50;7.82;;;3.55;;
25359;SDS011;13311;51.386;0.016;2023-05-20T11:30:52;8.82;;;3.40;;
25359;SDS011;13311;51.386;0.016;2023-05-20T11:35:53;10.20;;;3.35;;
25359;SDS011;13311;51.386;0.016;2023-05-20T11:40:56;9.73;;;3.72;;
25359;SDS011;13311;51.386;0.016;2023-05-20T11:45:57;5.63;;;2.88;;
25359;SDS011;13311;51.386;0.016;2023-05-20T11:51:01;7.45;;;2.83;;
25359;SDS011;13311;51.386;0.016;2023-05-20T11:56:02;5.65;;;3.03;;
25359;SDS011;13311;51.386;0.016;2023-05-20T12:01:03;6.85;;;2.53;;
25359;SDS011;13311;51.386;0.016;2023-05-20T12:06:03;6.30;;;2.97;;
25359;SDS011;13311;51.386;0.016;2023-05-20T12:11:04;5.03;;;3.15;;
25359;SDS011;13311;51.386;0.016;2023-05-20T12:16:05;10.23;;;3.28;;
25359;SDS011;13311;51.386;0.016;2023-05-20T12:21:06;7.32;;;2.95;;
25359;SDS011;13311;51.386;0.016;2023-05-20T12:26:08;9.43;;;3.33;;
25359;SDS011;13311;51.386;0.016;2023-05-20T12:31:08;8.95;;;3.22;;
25359;SDS011;13311;51.386;0.016;2023-05-20T12:36:10;5.70;;;2.70;;
25359;SDS011;13311;51.386;0.016;2023-05-20T12:41:12;7.22;;;2.90;;
25359;SDS011;13311;51.386;0.016;2023-05-20T12:46:12;8.40;;;2.97;;
25359;SDS011;13311;51.386;0.016;2023-05-20T12:51:13;7.10;;;3.00;;
25359;SDS011;13311;51.386;0.016;2023-05-20T12:56:14;13.23;;;3.00;;
25359;SDS011;13311;51.386;0.016;2023-05-20T13:01:15;6.07;;;3.33;;
25359;SDS011;13311;51.386;0.016;2023-05-20T13:06:16;8.75;;;2.72;;
25359;SDS011;13311;51.386;0.016;2023-05-20T13:11:16;7.07;;;2.90;;
25359;SDS011;13311;51.386;0.016;2023-05-20T13:16:17;6.97;;;2.67;;
25359;SDS011;13311;51.386;0.016;2023-05-20T13:21:18;9.35;;;3.05;;
25359;SDS011;13311;51.386;0.016;2023-05-20T13:26:19;6.80;;;2.92;;
25359;SDS011;13311;51.386;0.016;2023-05-20T13:31:20;9.98;;;3.22;;
25359;SDS011;13311;51.386;0.016;2023-05-20T13:36:21;10.35;;;3.38;;
25359;SDS011;13311;51.386;0.016;2023-05-20T13:41:22;6.80;;;3.00;;
25359;SDS011;13311;51.386;0.016;2023-05-20T13:46:25;9.15;;;3.15;;
25359;SDS011;13311;51.386;0.016;2023-05-20T13:51:26;5.93;;;2.33;;
25359;SDS011;13311;51.386;0.016;2023-05-20T13:56:26;5.85;;;2.92;;
25359;SDS011;13311;51.386;0.016;2023-05-20T14:01:29;9.45;;;3.17;;
25359;SDS011;13311;51.386;0.016;2023-05-20T14:06:32;7.57;;;2.30;;
25359;SDS011;13311;51.386;0.016;2023-05-20T14:11:32;7.60;;;2.42;;
25359;SDS011;13311;51.386;0.016;2023-05-20T14:16:33;7.10;;;2.42;;
25359;SDS011;13311;51.386;0.016;2023-05-20T14:21:34;5.63;;;2.70;;
25359;SDS011;13311;51.386;0.016;2023-05-20T14:26:34;9.05;;;2.35;;
25359;SDS011;13311;51.386;0.016;2023-05-20T14:31:35;6.78;;;2.55;;
25359;SDS011;13311;51.386;0.016;2023-05-20T14:36:38;4.55;;;2.25;;
25359;SDS011;13311;51.386;0.016;2023-05-20T14:41:39;5.65;;;2.75;;
25359;SDS011;13311;51.386;0.016;2023-05-20T14:46:39;7.63;;;2.58;;
25359;SDS011;13311;51.386;0.016;2023-05-20T14:51:40;9.68;;;3.08;;
25359;SDS011;13311;51.386;0.016;2023-05-20T14:56:41;6.38;;;2.53;;
25359;SDS011;13311;51.386;0.016;2023-05-20T15:01:42;5.53;;;2.35;;
25359;SDS011;13311;51.386;0.016;2023-05-20T15:06:42;5.88;;;2.20;;
25359;SDS011;13311;51.386;0.016;2023-05-20T15:11:43;9.30;;;2.50;;
25359;SDS011;13311;51.386;0.016;2023-05-20T15:16:44;6.40;;;2.10;;
25359;SDS011;13311;51.386;0.016;2023-05-20T15:21:45;5.32;;;2.47;;
25359;SDS011;13311;51.386;0.016;2023-05-20T15:26:46;7.68;;;2.42;;
25359;SDS011;13311;51.386;0.016;2023-05-20T15:31:46;5.47;;;2.30;;
25359;SDS011;13311;51.386;0.016;2023-05-20T15:36:47;5.90;;;2.47;;
25359;SDS011;13311;51.386;0.016;2023-05-20T15:41:48;4.22;;;2.03;;
25359;SDS011;13311;51.386;0.016;2023-05-20T15:46:50;4.00;;;2.65;;
25359;SDS011;13311;51.386;0.016;2023-05-20T15:51:51;3.10;;;2.28;;
25359;SDS011;13311;51.386;0.016;2023-05-20T15:56:52;8.70;;;2.30;;
25359;SDS011;13311;51.386;0.016;2023-05-20T16:01:53;7.57;;;2.80;;
25359;SDS011;13311;51.386;0.016;2023-05-20T16:06:54;5.28;;;2.40;;
25359;SDS011;13311;51.386;0.016;2023-05-20T16:11:55;6.28;;;2.20;;
25359;SDS011;13311;51.386;0.016;2023-05-20T16:16:56;9.63;;;2.63;;
25359;SDS011;13311;51.386;0.016;2023-05-20T16:21:57;7.85;;;2.95;;
25359;SDS011;13311;51.386;0.016;2023-05-20T16:26:57;7.50;;;2.90;;
25359;SDS011;13311;51.386;0.016;2023-05-20T16:31:58;10.38;;;2.50;;
25359;SDS011;13311;51.386;0.016;2023-05-20T16:36:59;10.32;;;2.40;;
25359;SDS011;13311;51.386;0.016;2023-05-20T16:42:00;5.57;;;2.13;;
25359;SDS011;13311;51.386;0.016;2023-05-20T16:47:01;6.32;;;2.45;;
25359;SDS011;13311;51.386;0.016;2023-05-20T16:52:02;6.25;;;2.78;;
25359;SDS011;13311;51.386;0.016;2023-05-20T16:57:04;4.45;;;1.80;;
25359;SDS011;13311;51.386;0.016;2023-05-20T17:02:05;6.60;;;1.90;;
25359;SDS011;13311;51.386;0.016;2023-05-20T17:07:06;5.72;;;2.38;;
25359;SDS011;13311;51.386;0.016;2023-05-20T17:12:08;10.25;;;2.70;;
25359;SDS011;13311;51.386;0.016;2023-05-20T17:17:09;5.15;;;2.40;;
25359;SDS011;13311;51.386;0.016;2023-05-20T17:22:12;5.22;;;2.40;;
25359;SDS011;13311;51.386;0.016;2023-05-20T17:27:13;7.95;;;2.50;;
25359;SDS011;13311;51.386;0.016;2023-05-20T17:32:14;7.22;;;3.63;;
25359;SDS011;13311;51.386;0.016;2023-05-20T17:37:15;5.43;;;2.53;;
25359;SDS011;13311;51.386;0.016;2023-05-20T17:42:16;5.18;;;2.40;;
25359;SDS011;13311;51.386;0.016;2023-05-20T17:47:16;5.25;;;2.67;;
25359;SDS011;13311;51.386;0.016;2023-05-20T17:52:17;5.18;;;2.28;;
25359;SDS011;13311;51.386;0.016;2023-05-20T17:57:18;6.03;;;2.90;;
25359;SDS011;13311;51.386;0.016;2023-05-20T18:02:19;4.07;;;1.92;;
25359;SDS011;13311;51.386;0.016;2023-05-20T18:07:20;6.22;;;2.75;;
25359;SDS011;13311;51.386;0.016;2023-05-20T18:12:21;5.25;;;2.85;;
25359;SDS011;13311;51.386;0.016;2023-05-20T18:17:21;5.00;;;2.20;;
25359;SDS011;13311;51.386;0.016;2023-05-20T18:22:22;5.80;;;2.20;;
25359;SDS011;13311;51.386;0.016;2023-05-20T18:27:23;4.80;;;1.98;;
25359;SDS011;13311;51.386;0.016;2023-05-20T18:32:24;5.18;;;2.15;;
25359;SDS011;13311;51.386;0.016;2023-05-20T18:37:27;2.70;;;1.70;;
25359;SDS011;13311;51.386;0.016;2023-05-20T18:42:28;5.55;;;1.67;;
25359;SDS011;13311;51.386;0.016;2023-05-20T18:47:28;4.30;;;1.83;;
25359;SDS011;13311;51.386;0.016;2023-05-20T18:52:29;3.03;;;1.15;;
25359;SDS011;13311;51.386;0.016;2023-05-20T18:57:30;5.85;;;1.50;;
25359;SDS011;13311;51.386;0.016;2023-05-20T19:02:30;2.20;;;1.30;;
25359;SDS011;13311;51.386;0.016;2023-05-20T19:07:31;6.57;;;1.85;;
25359;SDS011;13311;51.386;0.016;2023-05-20T19:12:32;3.22;;;1.85;;
25359;SDS011;13311;51.386;0.016;2023-05-20T19:17:33;4.00;;;1.48;;
25359;SDS011;13311;51.386;0.016;2023-05-20T19:22:34;7.32;;;1.52;;
25359;SDS011;13311;51.386;0.016;2023-05-20T19:27:35;4.65;;;1.92;;
25359;SDS011;13311;51.386;0.016;2023-05-20T19:32:35;3.38;;;1.42;;
25359;SDS011;13311;51.386;0.016;2023-05-20T19:37:36;3.60;;;1.52;;
25359;SDS011;13311;51.386;0.016;2023-05-20T19:42:37;3.17;;;1.52;;
25359;SDS011;13311;51.386;0.016;2023-05-20T19:47:38;8.63;;;2.20;;
25359;SDS011;13311;51.386;0.016;2023-05-20T19:52:39;2.60;;;1.83;;
25359;SDS011;13311;51.386;0.016;2023-05-20T19:57:39;6.45;;;1.75;;
25359;SDS011;13311;51.386;0.016;2023-05-20T20:02:40;4.80;;;1.98;;
25359;SDS011;13311;51.386;0.016;2023-05-20T20:07:41;3.95;;;1.63;;
25359;SDS011;13311;51.386;0.016;2023-05-20T20:12:42;5.45;;;2.30;;
25359;SDS011;13311;51.386;0.016;2023-05-20T20:17:42;5.40;;;2.28;;
25359;SDS011;13311;51.386;0.016;2023-05-20T20:22:44;6.85;;;2.63;;
25359;SDS011;13311;51.386;0.016;2023-05-20T20:27:45;7.28;;;2.65;;
25359;SDS011;13311;51.386;0.016;2023-05-20T20:32:47;4.80;;;2.15;;
25359;SDS011;13311;51.386;0.016;2023-05-20T20:37:48;5.45;;;2.05;;
25359;SDS011;13311;51.386;0.016;2023-05-20T20:42:53;5.03;;;2.55;;
25359;SDS011;13311;51.386;0.016;2023-05-20T20:47:57;5.47;;;2.55;;
25359;SDS011;13311;51.386;0.016;2023-05-20T20:53:00;8.43;;;2.85;;
25359;SDS011;13311;51.386;0.016;2023-05-20T20:58:01;8.65;;;2.60;;
25359;SDS011;13311;51.386;0.016;2023-05-20T21:03:03;9.25;;;2.45;;
25359;SDS011;13311;51.386;0.016;2023-05-20T21:08:06;6.32;;;2.45;;
25359;SDS011;13311;51.386;0.016;2023-05-20T21:13:08;6.03;;;2.65;;
25359;SDS011;13311;51.386;0.016;2023-05-20T21:18:09;6.07;;;2.00;;
25359;SDS011;13311;51.386;0.016;2023-05-20T21:23:11;4.97;;;2.50;;
25359;SDS011;13311;51.386;0.016;2023-05-20T21:28:11;6.93;;;3.05;;
25359;SDS011;13311;51.386;0.016;2023-05-20T21:33:12;2.90;;;2.00;;
25359;SDS011;13311;51.386;0.016;2023-05-20T21:38:13;7.55;;;2.42;;
25359;SDS011;13311;51.386;0.016;2023-05-20T21:43:14;10.90;;;3.60;;
25359;SDS011;13311;51.386;0.016;2023-05-20T21:48:15;8.48;;;2.63;;
25359;SDS011;13311;51.386;0.016;2023-05-20T21:53:16;5.97;;;2.55;;
25359;SDS011;13311;51.386;0.016;2023-05-20T21:58:17;2.85;;;1.55;;
25359;SDS011;13311;51.386;0.016;2023-05-20T22:03:18;6.32;;;2.47;;
25359;SDS011;13311;51.386;0.016;2023-05-20T22:08:19;4.78;;;2.78;;
25359;SDS011;13311;51.386;0.016;2023-05-20T22:13:19;7.10;;;3.08;;
25359;SDS011;13311;51.386;0.016;2023-05-20T22:18:24;4.57;;;2.28;;
25359;SDS011;13311;51.386;0.016;2023-05-20T22:23:26;5.00;;;2.15;;
25359;SDS011;13311;51.386;0.016;2023-05-20T22:28:27;4.63;;;2.05;;
25359;SDS011;13311;51.386;0.016;2023-05-20T22:33:29;4.95;;;3.00;;
25359;SDS011;13311;51.386;0.016;2023-05-20T22:38:30;7.03;;;2.88;;
25359;SDS011;13311;51.386;0.016;2023-05-20T22:43:31;8.07;;;2.55;;
25359;SDS011;13311;51.386;0.016;2023-05-20T22:48:32;4.80;;;2.03;;
25359;SDS011;13311;51.386;0.016;2023-05-20T22:53:33;5.40;;;1.85;;
25359;SDS011;13311;51.386;0.016;2023-05-20T22:58:34;4.22;;;2.33;;
25359;SDS011;13311;51.386;0.016;2023-05-20T23:03:38;9.55;;;2.33;;
25359;SDS011;13311;51.386;0.016;2023-05-20T23:08:39;3.00;;;1.75;;
25359;SDS011;13311;51.386;0.016;2023-05-20T23:13:43;2.88;;;1.48;;
25359;SDS011;13311;51.386;0.016;2023-05-20T23:18:44;3.17;;;1.60;;
25359;SDS011;13311;51.386;0.016;2023-05-20T23:23:46;3.80;;;1.60;;
25359;SDS011;13311;51.386;0.016;2023-05-20T23:28:47;7.45;;;2.45;;
25359;SDS011;13311;51.386;0.016;2023-05-20T23:33:48;5.40;;;2.13;;
25359;SDS011;13311;51.386;0.016;2023-05-20T23:38:49;4.88;;;1.70;;
25359;SDS011;13311;51.386;0.016;2023-05-20T23:43:50;5.20;;;2.43;;
25359;SDS011;13311;51.386;0.016;2023-05-20T23:48:50;6.00;;;2.45;;
25359;SDS011;13311;51.386;0.016;2023-05-20T23:53:52;7.57;;;2.70;;
25359;SDS011;13311;51.386;0.016;2023-05-20T23:58:54;4.85;;;2.10;;
